Time;durP1;ratioP1;P1;durP2;ratioP2;P2;SDS_P1;SDS_P2;PMS_P1;PMS_P2;Temp;Humidity;BMP_temperature;BMP_pressure;BME280_temperature;BME280_humidity;BME280_pressure;Samples;Min_cycle;Max_cycle;Signal;HPM_P1;HPM_P2
2022/07/25 00:00:28;;;;;;;6.10;4.80;;;;;;;25.06;52.32;101020.19;5094289;28;20028;-70
2022/07/25 00:02:54;;;;;;;6.15;4.22;;;;;;;25.05;52.02;101012.38;5094094;28;20428;-71
2022/07/25 00:05:20;;;;;;;5.20;4.03;;;;;;;25.07;51.99;101016.56;5094191;28;20034;-71
2022/07/25 00:07:45;;;;;;;6.10;4.32;;;;;;;25.06;52.00;101004.22;5093230;28;20024;-71
2022/07/25 00:10:10;;;;;;;5.20;3.70;;;;;;;25.06;51.87;101001.53;5094582;28;20064;-72
2022/07/25 00:12:36;;;;;;;6.35;4.30;;;;;;;25.06;52.02;100998.06;5094067;28;20662;-71
2022/07/25 00:15:02;;;;;;;6.10;4.25;;;;;;;25.06;51.96;100995.38;5093343;28;20040;-71
2022/07/25 00:17:27;;;;;;;5.88;4.45;;;;;;;25.00;51.86;100986.22;5094293;28;20024;-71
2022/07/25 00:19:52;;;;;;;5.65;4.47;;;;;;;25.05;52.15;100988.38;5093290;28;20031;-71
2022/07/25 00:22:18;;;;;;;6.93;4.10;;;;;;;25.04;51.84;100984.88;5093426;28;20424;-70
2022/07/25 00:24:43;;;;;;;5.60;4.30;;;;;;;25.04;51.92;100981.38;5093656;28;20020;-71
2022/07/25 00:27:08;;;;;;;5.30;4.10;;;;;;;25.03;51.77;100982.38;5094212;28;20031;-70
2022/07/25 00:29:40;;;;;;;6.37;4.77;;;;;;;25.04;51.89;100976.88;5093139;28;20475;-70
2022/07/25 00:32:05;;;;;;;6.10;4.43;;;;;;;25.05;51.63;100975.88;5094180;28;20295;-72
2022/07/25 00:34:31;;;;;;;5.80;4.40;;;;;;;25.04;51.80;100971.56;5093336;28;20056;-70
2022/07/25 00:36:56;;;;;;;5.75;4.53;;;;;;;25.03;51.97;100969.88;5093354;28;20027;-71
2022/07/25 00:39:21;;;;;;;4.85;3.97;;;;;;;25.02;51.57;100968.19;5093710;28;20028;-71
2022/07/25 00:41:49;;;;;;;6.25;4.43;;;;;;;25.02;51.72;100959.38;5093681;28;20108;-71
2022/07/25 00:44:26;;;;;;;6.07;4.35;;;;;;;25.02;51.74;100962.88;5093180;28;20023;-71
2022/07/25 00:46:52;;;;;;;7.70;4.40;;;;;;;25.03;51.88;100953.88;5093315;28;20106;-70
2022/07/25 00:49:17;;;;;;;5.43;4.35;;;;;;;25.04;51.39;100957.38;5093583;28;20095;-71
2022/07/25 00:51:46;;;;;;;5.70;4.15;;;;;;;25.03;51.83;100950.41;5092733;28;20039;-70
2022/07/25 00:54:12;;;;;;;5.65;4.35;;;;;;;25.01;51.75;100941.72;5093333;28;20112;-71
2022/07/25 00:56:41;;;;;;;5.63;4.28;;;;;;;25.01;51.51;100944.38;5093393;28;20442;-71
2022/07/25 00:59:07;;;;;;;6.75;4.78;;;;;;;25.02;51.58;100946.06;5092851;28;20031;-71
2022/07/25 01:01:37;;;;;;;6.70;4.95;;;;;;;24.99;51.90;100942.72;5093193;28;20313;-71
2022/07/25 01:04:03;;;;;;;5.63;4.45;;;;;;;25.00;51.70;100940.88;5092777;28;20036;-71
2022/07/25 01:06:28;;;;;;;6.20;5.20;;;;;;;25.00;51.41;100935.56;5092929;28;20043;-70
2022/07/25 01:08:54;;;;;;;5.65;4.55;;;;;;;24.99;51.89;100939.22;5093256;28;20479;-71
2022/07/25 01:11:20;;;;;;;6.13;4.53;;;;;;;25.01;51.59;100931.03;5092668;28;20020;-71
2022/07/25 01:13:46;;;;;;;5.75;4.40;;;;;;;24.99;51.73;100921.41;5092618;28;20048;-70
2022/07/25 01:16:11;;;;;;;5.43;4.47;;;;;;;24.99;51.42;100921.41;5093134;28;20023;-70
2022/07/25 01:18:37;;;;;;;5.63;4.28;;;;;;;24.99;51.42;100912.56;5092286;28;20073;-70
2022/07/25 01:21:03;;;;;;;5.32;4.28;;;;;;;24.99;51.58;100918.72;5093211;28;20028;-71
2022/07/25 01:23:28;;;;;;;5.68;4.30;;;;;;;24.97;51.27;100909.22;5092836;28;20039;-71
2022/07/25 01:25:54;;;;;;;5.90;4.50;;;;;;;24.96;51.58;100905.75;5092185;28;20024;-71
2022/07/25 01:28:19;;;;;;;5.55;4.18;;;;;;;24.96;51.47;100911.06;5093175;28;20063;-71
2022/07/25 01:30:44;;;;;;;5.97;4.60;;;;;;;24.95;51.28;100906.72;5091816;28;20024;-72
2022/07/25 01:33:15;;;;;;;5.72;4.30;;;;;;;24.96;51.50;100908.41;5092429;28;20268;-70
2022/07/25 01:35:41;;;;;;;7.18;4.50;;;;;;;24.96;51.55;100903.06;5092907;28;20157;-71
2022/07/25 01:38:06;;;;;;;6.00;4.78;;;;;;;24.94;51.13;100898.91;5093154;28;20447;-70
2022/07/25 01:40:31;;;;;;;6.33;4.23;;;;;;;24.95;51.60;100898.72;5090931;28;20441;-70
2022/07/25 01:42:56;;;;;;;5.77;4.60;;;;;;;24.96;51.21;100896.91;5093205;28;20047;-70
2022/07/25 01:45:22;;;;;;;6.13;4.40;;;;;;;24.95;51.43;100893.41;5093098;28;20035;-70
2022/07/25 01:47:47;;;;;;;5.57;4.78;;;;;;;24.95;51.49;100890.72;5090834;28;20758;-70
2022/07/25 01:50:12;;;;;;;6.40;4.93;;;;;;;24.96;51.25;100889.75;5092987;28;20024;-70
2022/07/25 01:52:41;;;;;;;5.93;4.47;;;;;;;24.94;51.21;100881.09;5092665;28;20028;-72
2022/07/25 01:55:09;;;;;;;5.88;4.18;;;;;;;24.94;51.43;100875.75;5091873;28;20024;-71
2022/07/25 01:57:35;;;;;;;6.43;4.82;;;;;;;24.95;51.35;100872.06;5092720;28;20024;-72
2022/07/25 02:00:02;;;;;;;6.25;4.75;;;;;;;24.95;51.14;100869.41;5093032;28;20027;-71
2022/07/25 02:02:29;;;;;;;6.82;4.55;;;;;;;24.95;51.23;100872.06;5093530;28;20048;-70
2022/07/25 02:04:54;;;;;;;5.65;4.40;;;;;;;24.95;51.14;100871.25;5093735;28;20142;-70
2022/07/25 02:07:20;;;;;;;5.37;4.10;;;;;;;24.93;51.42;100860.75;5091910;28;20065;-70
2022/07/25 02:09:45;;;;;;;6.25;4.82;;;;;;;24.95;51.17;100863.25;5092167;28;20306;-71
2022/07/25 02:12:11;;;;;;;5.68;4.45;;;;;;;24.94;51.06;100858.91;5092619;28;20031;-70
2022/07/25 02:14:38;;;;;;;5.85;4.80;;;;;;;24.93;50.92;100859.94;5091340;28;20047;-71
2022/07/25 02:17:04;;;;;;;5.20;4.15;;;;;;;24.92;51.43;100853.75;5092658;28;20103;-70
2022/07/25 02:19:32;;;;;;;5.18;4.10;;;;;;;24.92;50.91;100859.09;5092199;28;20436;-71
2022/07/25 02:21:57;;;;;;;6.18;4.47;;;;;;;24.92;51.33;100852.94;5091969;28;20057;-71
2022/07/25 02:24:25;;;;;;;5.82;4.30;;;;;;;24.91;51.17;100852.09;5092419;28;20392;-71
2022/07/25 02:26:50;;;;;;;5.60;4.50;;;;;;;24.91;51.20;100854.78;5092169;28;20031;-71
2022/07/25 02:29:16;;;;;;;5.35;3.90;;;;;;;24.94;51.09;100859.78;5091490;28;20024;-71
2022/07/25 02:31:44;;;;;;;5.25;4.38;;;;;;;24.91;50.87;100851.25;5092329;28;20029;-71
2022/07/25 02:34:09;;;;;;;5.05;4.35;;;;;;;24.93;51.39;100847.44;5092354;28;20112;-71
2022/07/25 02:36:40;;;;;;;6.30;4.50;;;;;;;24.92;51.12;100847.59;5091373;28;20103;-70
2022/07/25 02:39:08;;;;;;;5.88;4.30;;;;;;;24.92;51.23;100840.44;5092414;28;20318;-71
2022/07/25 02:41:34;;;;;;;5.97;4.60;;;;;;;24.92;50.76;100834.28;5092010;28;20016;-70
2022/07/25 02:44:03;;;;;;;5.32;4.18;;;;;;;24.86;50.99;100826.94;5095177;28;20536;-71
2022/07/25 02:46:28;;;;;;;6.28;4.25;;;;;;;24.91;50.82;100830.78;5096025;28;20035;-71
2022/07/25 02:48:53;;;;;;;5.93;4.73;;;;;;;24.89;50.87;100824.78;5095896;28;20020;-71
2022/07/25 02:51:19;;;;;;;5.85;4.72;;;;;;;24.91;50.96;100828.13;5095282;28;20271;-70
2022/07/25 02:53:44;;;;;;;6.03;4.15;;;;;;;24.91;50.88;100824.59;5095579;28;20027;-71
2022/07/25 02:56:09;;;;;;;6.60;4.85;;;;;;;24.90;50.58;100822.97;5095716;28;20527;-71
2022/07/25 02:58:34;;;;;;;5.77;4.57;;;;;;;24.90;50.88;100826.44;5095002;28;20024;-70
2022/07/25 03:01:00;;;;;;;4.80;3.85;;;;;;;24.89;50.95;100827.44;5095942;28;20337;-71
2022/07/25 03:03:25;;;;;;;5.93;4.32;;;;;;;24.88;51.08;100828.47;5094971;28;20024;-70
2022/07/25 03:05:50;;;;;;;6.67;5.10;;;;;;;24.88;50.57;100820.47;5095495;28;20456;-70
2022/07/25 03:08:16;;;;;;;6.05;4.82;;;;;;;24.90;50.64;100814.97;5095727;28;20032;-70
2022/07/25 03:10:44;;;;;;;5.90;4.65;;;;;;;24.90;50.98;100815.78;5094277;28;20034;-71
2022/07/25 03:13:09;;;;;;;5.75;4.28;;;;;;;24.90;50.80;100804.31;5095503;28;20051;-69
2022/07/25 03:15:37;;;;;;;6.15;4.57;;;;;;;24.87;50.58;100794.78;5095118;28;20472;-70
2022/07/25 03:18:03;;;;;;;5.82;4.20;;;;;;;24.90;50.77;100798.97;5094434;28;20444;-71
2022/07/25 03:20:28;;;;;;;6.40;4.60;;;;;;;24.89;50.68;100792.78;5095365;28;20056;-71
2022/07/25 03:22:53;;;;;;;6.05;4.57;;;;;;;24.89;50.51;100798.13;5095563;28;20016;-70
2022/07/25 03:25:19;;;;;;;5.60;4.10;;;;;;;24.89;50.84;100800.78;5094376;28;20111;-70
2022/07/25 03:27:44;;;;;;;5.70;4.30;;;;;;;24.84;50.34;100787.13;5094818;28;20028;-71
2022/07/25 03:30:11;;;;;;;5.83;4.23;;;;;;;24.89;50.49;100795.44;5095324;28;20269;-69
2022/07/25 03:32:36;;;;;;;5.28;4.00;;;;;;;24.88;50.48;100799.13;5094284;28;20268;-70
2022/07/25 03:35:01;;;;;;;6.28;4.85;;;;;;;24.88;50.82;100793.81;5095340;28;20085;-70
2022/07/25 03:37:26;;;;;;;6.47;4.60;;;;;;;24.88;50.59;100792.94;5095144;28;20039;-70
2022/07/25 03:39:52;;;;;;;5.87;4.30;;;;;;;24.86;50.57;100790.47;5093835;28;20476;-70
2022/07/25 03:42:17;;;;;;;6.03;4.30;;;;;;;24.85;50.53;100782.63;5095005;28;20268;-70
2022/07/25 03:44:42;;;;;;;5.95;4.22;;;;;;;24.86;50.47;100794.97;5094826;28;20107;-70
2022/07/25 03:47:08;;;;;;;6.32;4.60;;;;;;;24.86;50.05;100795.78;5094272;28;20077;-70
2022/07/25 03:49:36;;;;;;;7.93;4.43;;;;;;;24.86;50.13;100802.97;5094646;28;20102;-70
2022/07/25 03:52:01;;;;;;;6.00;4.55;;;;;;;24.85;50.08;100801.28;5094813;28;20273;-70
2022/07/25 03:54:27;;;;;;;5.85;4.60;;;;;;;24.83;50.57;100801.47;5092787;28;20473;-70
2022/07/25 03:56:52;;;;;;;5.57;4.57;;;;;;;24.84;50.45;100794.31;5094573;28;20027;-70
2022/07/25 03:59:20;;;;;;;6.07;4.25;;;;;;;24.85;50.18;100787.97;5095019;28;20035;-70
2022/07/25 04:01:47;;;;;;;5.85;4.72;;;;;;;24.86;50.54;100786.97;5093539;28;20103;-72
2022/07/25 04:04:13;;;;;;;7.32;4.32;;;;;;;24.85;50.45;100786.16;5094660;28;20032;-70
2022/07/25 04:06:42;;;;;;;6.00;4.50;;;;;;;24.82;50.58;100773.16;5094117;28;20030;-71
2022/07/25 04:09:09;;;;;;;6.63;4.75;;;;;;;24.85;50.04;100772.81;5094367;28;20119;-70
2022/07/25 04:11:37;;;;;;;6.18;4.47;;;;;;;24.85;50.31;100786.16;5095134;28;20051;-70
2022/07/25 04:14:25;;;;;;;5.30;3.97;;;;;;;24.84;50.46;100783.66;5093347;28;20044;-70
2022/07/25 04:16:51;;;;;;;6.47;4.57;;;;;;;24.85;50.02;100772.81;5093960;28;20420;-70
2022/07/25 04:19:19;;;;;;;6.67;4.50;;;;;;;24.85;50.25;100772.81;5094225;28;20062;-70
2022/07/25 04:21:44;;;;;;;6.00;4.55;;;;;;;24.84;50.14;100781.00;5093073;28;20279;-71
2022/07/25 04:24:09;;;;;;;5.70;4.53;;;;;;;24.85;50.50;100779.97;5094285;28;20442;-70
2022/07/25 04:26:37;;;;;;;6.38;4.70;;;;;;;24.83;50.40;100774.81;5093927;28;20266;-70
2022/07/25 04:29:03;;;;;;;6.25;4.60;;;;;;;24.84;50.53;100776.47;5093346;28;20053;-71
2022/07/25 04:31:28;;;;;;;6.90;4.25;;;;;;;24.83;50.36;100766.00;5093871;28;20024;-70
2022/07/25 04:33:54;;;;;;;6.45;4.30;;;;;;;24.85;50.37;100774.63;5093888;28;20535;-70
2022/07/25 04:36:19;;;;;;;5.90;4.05;;;;;;;24.85;50.01;100785.31;5093172;28;20023;-70
2022/07/25 04:38:47;;;;;;;5.88;4.35;;;;;;;24.85;50.14;100780.81;5093707;28;20073;-71
2022/07/25 04:41:12;;;;;;;7.03;4.88;;;;;;;24.86;50.15;100786.97;5094023;28;20024;-71
2022/07/25 04:43:38;;;;;;;6.28;4.30;;;;;;;24.84;50.09;100784.47;5092727;28;20039;-71
2022/07/25 04:46:03;;;;;;;6.70;4.50;;;;;;;24.84;50.55;100781.00;5093824;28;20024;-70
2022/07/25 04:48:28;;;;;;;6.00;4.20;;;;;;;24.85;50.15;100772.81;5093603;28;20753;-70
2022/07/25 04:50:54;;;;;;;7.55;4.68;;;;;;;24.84;50.48;100765.81;5092750;28;20363;-71
2022/07/25 04:53:19;;;;;;;6.50;4.53;;;;;;;24.84;50.47;100762.34;5094273;28;20035;-71
2022/07/25 04:55:45;;;;;;;6.65;4.88;;;;;;;24.85;50.34;100769.31;5093417;28;20028;-71
2022/07/25 04:58:31;;;;;;;6.00;4.25;;;;;;;24.82;50.25;100773.16;5093036;28;20471;-70
2022/07/25 05:00:57;;;;;;;5.97;4.70;;;;;;;24.84;50.42;100773.00;5092303;28;20040;-71
2022/07/25 05:03:23;;;;;;;6.32;4.82;;;;;;;24.85;50.00;100771.97;5092591;28;20074;-71
2022/07/25 05:05:48;;;;;;;5.95;4.03;;;;;;;24.84;50.14;100778.31;5093259;28;20402;-71
2022/07/25 05:08:13;;;;;;;7.90;5.00;;;;;;;24.84;50.43;100781.81;5093402;28;20119;-71
2022/07/25 05:10:39;;;;;;;6.33;4.43;;;;;;;24.83;50.23;100771.31;5092675;28;20040;-76
2022/07/25 05:13:04;;;;;;;6.18;4.57;;;;;;;24.79;49.50;100770.84;5093374;28;20268;-71
2022/07/25 05:15:29;;;;;;;6.97;5.32;;;;;;;24.58;49.99;100777.53;5093150;28;20024;-72
2022/07/25 05:17:54;;;;;;;7.77;5.03;;;;;;;24.39;50.86;100784.03;5092717;28;20020;-73
2022/07/25 05:20:20;;;;;;;6.83;5.13;;;;;;;24.21;51.57;100778.88;5093359;28;20024;-69
2022/07/25 05:22:45;;;;;;;8.02;5.47;;;;;;;24.07;51.96;100780.38;5093214;28;20351;-69
2022/07/25 05:25:14;;;;;;;9.40;6.07;;;;;;;23.96;52.31;100774.50;5092691;28;20024;-70
2022/07/25 05:27:40;;;;;;;7.97;6.18;;;;;;;23.86;52.13;100772.88;5092723;28;20024;-69
2022/07/25 05:30:08;;;;;;;8.13;5.75;;;;;;;23.81;53.12;100777.78;5093000;28;20039;-71
2022/07/25 05:32:33;;;;;;;7.45;5.35;;;;;;;23.76;52.97;100782.78;5091079;28;20047;-69
2022/07/25 05:34:59;;;;;;;7.10;5.43;;;;;;;23.70;53.40;100781.63;5092470;28;20396;-70
2022/07/25 05:37:24;;;;;;;10.57;5.70;;;;;;;23.67;53.39;100779.28;5092987;28;20520;-71
2022/07/25 05:39:49;;;;;;;8.07;5.60;;;;;;;23.63;53.55;100793.91;5092086;28;20027;-69
2022/07/25 05:42:14;;;;;;;6.55;5.10;;;;;;;23.61;54.05;100792.41;5093052;28;20367;-69
2022/07/25 05:44:40;;;;;;;8.37;5.50;;;;;;;23.54;53.59;100782.41;5092629;28;20471;-70
2022/07/25 05:47:14;;;;;;;7.33;5.23;;;;;;;23.51;53.69;100788.06;5091962;28;20277;-71
2022/07/25 05:49:39;;;;;;;7.32;5.40;;;;;;;23.49;54.28;100783.88;5092758;28;20283;-69
2022/07/25 05:52:05;;;;;;;6.97;5.32;;;;;;;23.45;54.07;100785.19;5092249;28;20032;-69
2022/07/25 05:54:31;;;;;;;6.28;5.10;;;;;;;23.41;53.76;100784.69;5092588;28;20028;-69
2022/07/25 05:56:56;;;;;;;7.72;5.25;;;;;;;23.39;54.15;100792.00;5093297;28;20017;-72
2022/07/25 05:59:21;;;;;;;8.53;5.40;;;;;;;23.39;54.11;100804.47;5093400;28;20031;-68
2022/07/25 06:01:53;;;;;;;6.77;5.10;;;;;;;23.40;53.86;100808.78;5093195;28;20032;-68
2022/07/25 06:04:18;;;;;;;6.32;5.30;;;;;;;23.39;53.09;100809.78;5093424;28;20035;-70
2022/07/25 06:06:49;;;;;;;6.25;5.20;;;;;;;23.37;53.70;100812.59;5092392;28;20020;-71
2022/07/25 06:09:15;;;;;;;6.80;5.20;;;;;;;23.34;53.63;100807.59;5093091;28;20050;-72
2022/07/25 06:11:40;;;;;;;7.45;5.05;;;;;;;23.34;54.54;100805.78;5092584;28;20383;-70
2022/07/25 06:14:06;;;;;;;7.13;5.40;;;;;;;23.31;53.47;100803.44;5091611;28;20044;-71
2022/07/25 06:16:34;;;;;;;6.50;4.73;;;;;;;23.28;53.83;100805.59;5092562;28;20459;-70
2022/07/25 06:18:59;;;;;;;6.85;4.35;;;;;;;23.26;54.37;100810.25;5096392;28;20277;-70
2022/07/25 06:21:24;;;;;;;6.80;4.77;;;;;;;23.19;54.19;100804.69;5095934;28;20035;-69
2022/07/25 06:23:53;;;;;;;6.35;4.43;;;;;;;23.20;54.56;100814.34;5096337;28;20030;-71
2022/07/25 06:26:18;;;;;;;7.43;4.78;;;;;;;23.16;54.50;100805.88;5096678;28;20047;-69
2022/07/25 06:28:43;;;;;;;5.90;4.38;;;;;;;23.13;54.88;100811.50;5095458;28;20444;-70
2022/07/25 06:31:09;;;;;;;6.38;4.20;;;;;;;23.12;54.95;100814.31;5096536;28;20396;-69
2022/07/25 06:33:40;;;;;;;6.23;4.00;;;;;;;23.11;54.85;100818.78;5096348;28;20510;-71
2022/07/25 06:36:05;;;;;;;7.65;4.10;;;;;;;23.10;55.47;100819.78;5095566;28;20778;-69
2022/07/25 06:38:31;;;;;;;7.35;4.78;;;;;;;23.10;55.17;100816.31;5096127;28;20035;-69
2022/07/25 06:40:56;;;;;;;6.43;4.47;;;;;;;23.10;54.73;100814.47;5096405;28;20031;-69
2022/07/25 06:43:24;;;;;;;7.68;4.35;;;;;;;23.07;54.56;100811.28;5095420;28;20597;-69
2022/07/25 06:45:50;;;;;;;7.53;4.40;;;;;;;23.08;54.94;100813.81;5096060;28;20043;-69
2022/07/25 06:48:16;;;;;;;6.88;4.20;;;;;;;23.06;55.07;100822.88;5096312;28;20020;-71
2022/07/25 06:50:41;;;;;;;6.55;4.15;;;;;;;23.05;55.14;100822.06;5095181;28;20020;-70
2022/07/25 06:53:07;;;;;;;6.88;4.60;;;;;;;23.06;55.12;100828.19;5096192;28;20031;-71
2022/07/25 06:55:33;;;;;;;7.05;4.53;;;;;;;23.06;54.94;100814.91;5095105;28;20035;-71
2022/07/25 06:57:58;;;;;;;5.80;3.67;;;;;;;23.06;55.35;100809.59;5096156;28;20046;-70
2022/07/25 07:00:23;;;;;;;6.25;3.58;;;;;;;23.05;55.79;100818.56;5096186;28;20012;-69
2022/07/25 07:02:48;;;;;;;6.10;3.70;;;;;;;23.05;56.39;100811.44;5095166;28;20028;-68
2022/07/25 07:05:14;;;;;;;4.97;3.43;;;;;;;23.05;56.21;100813.22;5096138;28;20272;-70
2022/07/25 07:07:39;;;;;;;6.07;3.50;;;;;;;23.05;56.39;100814.09;5095622;28;20020;-72
2022/07/25 07:10:05;;;;;;;6.23;3.90;;;;;;;23.01;56.66;100812.72;5097168;28;20058;-70
2022/07/25 07:12:30;;;;;;;6.72;3.85;;;;;;;23.03;56.81;100812.56;5095367;28;20296;-73
2022/07/25 07:14:55;;;;;;;6.85;3.55;;;;;;;23.07;56.62;100808.63;5095648;28;20048;-70
2022/07/25 07:17:21;;;;;;;5.82;3.13;;;;;;;23.12;56.88;100819.63;5094954;28;20035;-70
2022/07/25 07:19:46;;;;;;;7.72;3.30;;;;;;;23.16;57.51;100816.50;5095661;28;20020;-70
2022/07/25 07:22:11;;;;;;;6.23;3.20;;;;;;;23.25;56.49;100811.22;5095821;28;20101;-73
2022/07/25 07:24:36;;;;;;;6.82;3.38;;;;;;;23.33;55.80;100809.41;5094700;28;20705;-71
2022/07/25 07:27:02;;;;;;;5.87;2.87;;;;;;;23.43;55.86;100813.78;5095628;28;20031;-71
2022/07/25 07:29:28;;;;;;;5.80;2.78;;;;;;;23.49;55.62;100811.28;5094325;28;20066;-70
2022/07/25 07:31:53;;;;;;;4.13;2.42;;;;;;;23.54;55.28;100803.69;5094615;28;20032;-73
2022/07/25 07:34:19;;;;;;;6.75;2.50;;;;;;;23.63;55.60;100817.84;5095800;28;20024;-69
2022/07/25 07:36:44;;;;;;;5.32;2.70;;;;;;;23.67;55.23;100821.84;5094858;28;20383;-68
2022/07/25 07:39:09;;;;;;;5.38;2.60;;;;;;;23.71;55.55;100825.84;5094260;28;20021;-69
2022/07/25 07:41:35;;;;;;;6.23;2.60;;;;;;;23.70;55.64;100821.53;5095017;28;20103;-71
2022/07/25 07:44:00;;;;;;;6.28;2.40;;;;;;;23.72;55.41;100821.38;5095050;28;20329;-74
2022/07/25 07:46:25;;;;;;;5.50;2.30;;;;;;;23.73;55.69;100828.34;5094475;28;20028;-69
2022/07/25 07:48:51;;;;;;;5.88;2.45;;;;;;;23.75;55.17;100823.72;5094723;28;20028;-68
2022/07/25 07:51:16;;;;;;;4.13;1.80;;;;;;;23.82;55.35;100823.88;5094973;28;20016;-70
2022/07/25 07:56:25;;;;;;;4.80;1.70;;;;;;;23.99;54.86;100830.09;5094727;28;20698;-73
2022/07/25 07:58:50;;;;;;;4.20;1.60;;;;;;;24.05;55.40;100826.75;5093510;28;20032;-70
2022/07/25 08:01:16;;;;;;;5.10;1.70;;;;;;;24.08;54.90;100835.28;5094787;28;20035;-70
2022/07/25 08:03:41;;;;;;;7.00;1.90;;;;;;;24.09;55.33;100834.25;5094445;28;20027;-72
2022/07/25 08:06:09;;;;;;;4.57;1.58;;;;;;;24.12;55.00;100833.13;5093912;28;20462;-77
2022/07/25 08:08:34;;;;;;;3.70;1.40;;;;;;;24.17;54.45;100832.63;5094491;28;20053;-86
2022/07/25 08:11:05;;;;;;;4.75;1.75;;;;;;;24.22;54.46;100833.78;5094398;28;20523;-75
2022/07/25 08:13:32;;;;;;;4.65;1.60;;;;;;;24.24;54.67;100838.94;5093476;28;20495;-73
2022/07/25 08:16:00;;;;;;;3.95;1.63;;;;;;;24.32;54.47;100832.78;5094455;28;20024;-70
2022/07/25 08:18:31;;;;;;;4.55;1.50;;;;;;;24.40;54.21;100840.78;5094493;28;20031;-74
2022/07/25 08:20:57;;;;;;;5.65;1.80;;;;;;;24.47;53.81;100838.28;5093700;28;20107;-74
2022/07/25 08:23:26;;;;;;;4.13;1.60;;;;;;;24.52;53.98;100834.13;5094292;28;20455;-73
2022/07/25 08:25:52;;;;;;;5.07;2.03;;;;;;;24.58;53.79;100830.00;5094232;28;20032;-73
2022/07/25 08:28:18;;;;;;;4.75;1.40;;;;;;;24.61;53.39;100827.81;5093679;28;20024;-76
2022/07/25 08:30:44;;;;;;;4.70;1.70;;;;;;;24.71;53.25;100837.47;5094133;28;20100;-73
2022/07/25 08:33:14;;;;;;;5.88;1.70;;;;;;;24.75;52.93;100836.13;5094179;28;20058;-71
2022/07/25 08:35:45;;;;;;;5.60;1.60;;;;;;;24.78;52.64;100846.44;5092812;28;20137;-72
2022/07/25 08:38:11;;;;;;;5.22;1.90;;;;;;;24.79;53.14;100843.63;5093160;28;20398;-68
2022/07/25 08:40:36;;;;;;;3.80;1.65;;;;;;;24.78;52.93;100844.63;5094008;28;20467;-77
2022/07/25 08:43:04;;;;;;;4.75;1.58;;;;;;;24.83;52.58;100846.78;5093347;28;20379;-77
2022/07/25 08:45:31;;;;;;;5.75;1.45;;;;;;;24.85;52.72;100844.78;5094489;28;20028;-80
2022/07/25 08:47:57;;;;;;;4.80;1.63;;;;;;;24.88;52.38;100838.25;5095214;28;20073;-77
2022/07/25 08:50:25;;;;;;;4.68;1.48;;;;;;;24.91;52.48;100838.78;5093986;28;20023;-75
2022/07/25 08:52:51;;;;;;;4.07;1.52;;;;;;;24.95;52.11;100833.94;5093961;28;20069;-77
2022/07/25 08:55:22;;;;;;;3.15;1.30;;;;;;;24.99;52.60;100832.56;5093844;28;20024;-80
2022/07/25 08:57:50;;;;;;;4.88;1.33;;;;;;;25.03;52.33;100833.09;5097575;28;20375;-77
2022/07/25 09:00:18;;;;;;;4.35;1.45;;;;;;;25.05;51.90;100842.56;5094449;28;20348;-77
2022/07/25 09:02:51;;;;;;;3.15;1.42;;;;;;;25.08;51.87;100847.56;5093900;28;20069;-75
2022/07/25 09:05:19;;;;;;;5.13;1.67;;;;;;;25.09;52.08;100846.56;5094797;28;20064;-76
2022/07/25 09:07:45;;;;;;;3.85;1.52;;;;;;;25.11;51.95;100843.72;5093463;28;20027;-76
2022/07/25 09:10:22;;;;;;;3.87;1.40;;;;;;;25.11;52.11;100836.53;5092814;28;20024;-83
2022/07/25 09:12:53;;;;;;;4.45;1.40;;;;;;;25.11;52.61;100846.38;5093266;28;20632;-74
2022/07/25 09:15:28;;;;;;;3.45;1.55;;;;;;;25.12;52.47;100840.06;5092995;28;20185;-74
2022/07/25 09:17:57;;;;;;;4.55;1.45;;;;;;;25.13;51.82;100847.91;5092791;28;20020;-74
2022/07/25 09:20:22;;;;;;;3.78;1.23;;;;;;;25.16;52.12;100852.03;5093471;28;20024;-74
2022/07/25 09:22:48;;;;;;;4.07;1.30;;;;;;;25.19;51.99;100850.88;5094834;28;20107;-75
2022/07/25 09:25:22;;;;;;;4.82;1.60;;;;;;;25.17;51.78;100853.72;5094236;28;20157;-70
2022/07/25 09:27:47;;;;;;;4.50;1.50;;;;;;;25.17;51.67;100853.72;5092630;28;20103;-71
2022/07/25 09:30:14;;;;;;;3.20;1.20;;;;;;;25.22;51.97;100862.03;5092432;28;20154;-72
2022/07/25 09:32:39;;;;;;;5.10;1.33;;;;;;;25.24;51.80;100849.34;5092691;28;20027;-73
2022/07/25 09:35:05;;;;;;;4.32;1.75;;;;;;;25.24;51.68;100865.34;5093086;28;20032;-72
2022/07/25 09:37:30;;;;;;;3.38;1.23;;;;;;;25.29;51.84;100879.03;5091948;28;20020;-78
2022/07/25 09:39:56;;;;;;;5.05;1.45;;;;;;;25.28;51.87;100879.22;5093034;28;20081;-73
2022/07/25 09:42:32;;;;;;;4.35;1.20;;;;;;;25.25;52.12;100885.69;5093085;28;20020;-74
2022/07/25 09:45:03;;;;;;;2.78;1.33;;;;;;;25.25;51.74;100888.34;5092443;28;20022;-73
2022/07/25 09:47:30;;;;;;;4.97;1.75;;;;;;;25.28;51.70;100890.72;5092719;28;20394;-73
2022/07/25 09:49:56;;;;;;;5.18;1.40;;;;;;;25.28;51.77;100887.22;5093062;28;20439;-73
2022/07/25 09:52:22;;;;;;;3.50;1.27;;;;;;;25.28;51.86;100877.38;5091804;28;20052;-73
2022/07/25 09:54:48;;;;;;;3.80;1.40;;;;;;;25.28;51.84;100881.88;5092453;28;20024;-75
2022/07/25 09:57:16;;;;;;;3.05;1.30;;;;;;;25.26;51.70;100884.69;5092779;28;20388;-76
2022/07/25 09:59:43;;;;;;;3.03;1.33;;;;;;;25.26;51.80;100889.16;5092257;28;20103;-72
2022/07/25 10:02:26;;;;;;;4.20;1.67;;;;;;;25.26;51.61;100884.69;5092197;28;20109;-71
2022/07/25 10:05:33;;;;;;;5.05;1.50;;;;;;;25.23;51.72;100889.50;5092700;28;20036;-77
2022/07/25 10:07:59;;;;;;;5.50;1.80;;;;;;;25.21;52.05;100887.00;5045504;28;20115;-78
2022/07/25 10:10:28;;;;;;;4.20;1.30;;;;;;;25.22;51.72;100885.19;5092915;28;20032;-76
2022/07/25 10:13:05;;;;;;;5.13;2.13;;;;;;;25.21;51.78;100889.69;5093668;28;20020;-76
2022/07/25 10:15:40;;;;;;;2.95;1.42;;;;;;;25.20;51.86;100890.69;5092522;28;20036;-78
2022/07/25 10:18:07;;;;;;;4.35;1.60;;;;;;;25.22;51.74;100888.69;5093178;28;20464;-79
2022/07/25 10:20:33;;;;;;;4.85;1.73;;;;;;;25.22;51.96;100894.03;5092272;28;20052;-76
2022/07/25 10:22:59;;;;;;;4.35;1.60;;;;;;;25.19;51.86;100883.69;5092921;28;20021;-76
2022/07/25 10:25:24;;;;;;;6.90;2.00;;;;;;;25.14;52.28;100878.88;5092737;28;20061;-75
2022/07/25 10:28:04;;;;;;;5.15;1.45;;;;;;;25.15;51.87;100887.69;5091382;28;20078;-74
2022/07/25 10:30:38;;;;;;;3.80;1.42;;;;;;;25.12;52.19;100872.06;5092143;28;20074;-67
2022/07/25 10:33:11;;;;;;;4.13;1.33;;;;;;;25.17;52.16;100883.03;5092817;28;20111;-74
2022/07/25 10:35:36;;;;;;;4.68;1.70;;;;;;;25.11;52.21;100883.72;5091844;28;20036;-72
2022/07/25 10:38:03;;;;;;;3.85;1.40;;;;;;;25.06;52.19;100889.56;5092466;28;20103;-72
2022/07/25 10:40:43;;;;;;;3.75;1.50;;;;;;;25.05;52.00;100892.41;5092045;28;20017;-73
2022/07/25 10:43:21;;;;;;;4.72;1.63;;;;;;;25.05;51.97;100892.41;5092224;28;20479;-71
2022/07/25 10:45:56;;;;;;;4.20;1.52;;;;;;;25.05;52.06;100893.22;5092156;28;20034;-72
2022/07/25 10:48:36;;;;;;;5.97;1.80;;;;;;;25.05;51.83;100897.72;5092094;28;20044;-72
2022/07/25 10:51:05;;;;;;;3.40;1.70;;;;;;;25.05;52.46;100900.38;5092566;28;20049;-70
2022/07/25 10:53:42;;;;;;;3.58;1.60;;;;;;;25.02;52.26;100898.88;5092032;28;20059;-72
2022/07/25 10:56:11;;;;;;;6.53;1.90;;;;;;;25.02;52.56;100901.56;5091545;28;20035;-69
2022/07/25 10:58:54;;;;;;;4.68;1.90;;;;;;;25.04;52.48;100914.72;5091779;28;20459;-72
2022/07/25 11:01:23;;;;;;;3.67;1.58;;;;;;;25.04;52.60;100909.38;5092183;28;20498;-72
2022/07/25 11:03:49;;;;;;;3.60;1.80;;;;;;;25.04;52.24;100920.03;5092770;28;20023;-70
2022/07/25 11:06:15;;;;;;;3.00;1.50;;;;;;;25.03;52.49;100915.72;5095939;28;20069;-69
2022/07/25 11:08:42;;;;;;;4.05;1.50;;;;;;;25.03;52.19;100918.41;5094751;28;20475;-70
2022/07/25 11:11:09;;;;;;;4.28;1.63;;;;;;;25.03;52.29;100911.22;5095761;28;20051;-70
2022/07/25 11:13:41;;;;;;;3.78;1.52;;;;;;;25.03;52.49;100913.88;5095061;28;20495;-70
2022/07/25 11:16:08;;;;;;;4.85;1.60;;;;;;;25.04;51.94;100914.72;5094776;28;20028;-70
2022/07/25 11:18:39;;;;;;;3.42;1.60;;;;;;;25.03;52.08;100919.22;5095089;28;20024;-69
2022/07/25 11:21:06;;;;;;;4.10;1.52;;;;;;;25.03;52.43;100918.41;5095728;28;20028;-72
2022/07/25 11:23:33;;;;;;;3.97;1.88;;;;;;;25.02;52.79;100919.38;5094535;28;20024;-72
2022/07/25 11:26:09;;;;;;;4.13;1.80;;;;;;;24.99;52.57;100923.22;5095497;28;20099;-68